createdAt,value
2022-12-04T00:01:26.600Z,17.77
2022-12-04T00:03:55.624Z,16.83
2022-12-04T00:06:24.487Z,17.13
2022-12-04T00:08:53.494Z,16.43
2022-12-04T00:11:25.365Z,16.50
2022-12-04T00:13:54.091Z,13.83
2022-12-04T00:16:23.712Z,14.90
2022-12-04T00:18:52.144Z,15.70
2022-12-04T00:21:21.405Z,16.53
2022-12-04T00:23:50.148Z,17.57
2022-12-04T00:26:19.816Z,13.17
2022-12-04T00:28:50.180Z,18.33
2022-12-04T00:31:19.771Z,17.10
2022-12-04T00:33:48.583Z,11.30
2022-12-04T00:36:20.936Z,16.87
2022-12-04T00:38:49.497Z,17.60
2022-12-04T00:41:19.254Z,17.80
2022-12-04T00:43:48.066Z,16.03
2022-12-04T00:46:18.602Z,17.40
2022-12-04T00:48:47.380Z,17.07
2022-12-04T00:51:17.763Z,17.13
2022-12-04T00:53:46.604Z,17.20
2022-12-04T00:56:18.581Z,18.43
2022-12-04T00:58:47.437Z,17.33
2022-12-04T01:01:16.863Z,17.90
2022-12-04T01:03:47.135Z,16.17
2022-12-04T01:06:25.272Z,9.67
2022-12-04T01:08:54.448Z,11.83
2022-12-04T01:11:23.769Z,17.47
2022-12-04T01:13:52.421Z,18.13
2022-12-04T01:16:21.843Z,17.80
2022-12-04T01:18:52.112Z,13.53
2022-12-04T01:21:20.674Z,17.10
2022-12-04T01:23:48.689Z,14.67
2022-12-04T01:26:17.204Z,15.93
2022-12-04T01:28:45.664Z,18.27
2022-12-04T01:31:17.442Z,15.63
2022-12-04T01:33:46.229Z,18.83
2022-12-04T01:36:16.703Z,11.80
2022-12-04T01:38:45.272Z,19.70
2022-12-04T01:41:14.722Z,18.83
2022-12-04T01:43:43.162Z,14.37
2022-12-04T01:46:12.050Z,15.13
2022-12-04T01:48:42.843Z,17.07
2022-12-04T01:51:15.471Z,19.80
2022-12-04T01:53:46.617Z,16.47
2022-12-04T01:56:15.713Z,18.33
2022-12-04T01:58:46.865Z,15.67
2022-12-04T02:01:15.321Z,15.57
2022-12-04T02:03:43.757Z,14.17
2022-12-04T02:06:12.227Z,18.30
2022-12-04T02:08:40.823Z,19.10
2022-12-04T02:11:15.064Z,19.00
2022-12-04T02:13:48.560Z,19.50
2022-12-04T02:16:21.461Z,16.40
2022-12-04T02:18:56.038Z,12.50
2022-12-04T02:21:29.555Z,13.23
2022-12-04T02:24:06.219Z,19.43
2022-12-04T02:26:41.854Z,11.43
2022-12-04T02:29:14.095Z,17.47
2022-12-04T02:31:44.076Z,18.63
2022-12-04T02:34:15.956Z,18.90
2022-12-04T02:36:46.707Z,18.57
2022-12-04T02:39:21.383Z,19.70
2022-12-04T02:41:53.037Z,16.30
2022-12-04T02:44:24.290Z,18.07
2022-12-04T02:46:54.633Z,15.50
2022-12-04T02:49:25.617Z,16.00
2022-12-04T02:51:55.292Z,14.83
2022-12-04T02:54:26.514Z,16.73
2022-12-04T02:56:55.721Z,21.07
2022-12-04T02:59:30.785Z,17.70
2022-12-04T03:02:03.141Z,15.07
2022-12-04T03:04:31.982Z,19.37
2022-12-04T03:07:02.480Z,18.27
2022-12-04T03:09:35.050Z,18.97
2022-12-04T03:12:07.402Z,14.93
2022-12-04T03:14:40.069Z,18.20
2022-12-04T03:17:11.133Z,18.03
2022-12-04T03:19:42.395Z,17.87
2022-12-04T03:22:12.407Z,19.53
2022-12-04T03:24:42.172Z,20.00
2022-12-04T03:27:12.730Z,20.57
2022-12-04T03:29:45.036Z,18.00
2022-12-04T03:32:15.018Z,18.00
2022-12-04T03:34:48.801Z,18.37
2022-12-04T03:37:20.528Z,15.47
2022-12-04T03:39:53.434Z,16.13
2022-12-04T03:42:24.191Z,15.70
2022-12-04T03:44:56.357Z,14.57
2022-12-04T03:47:28.213Z,12.47
2022-12-04T03:49:59.299Z,19.37
2022-12-04T03:52:30.698Z,20.30
2022-12-04T03:55:02.892Z,14.53
2022-12-04T03:57:33.303Z,20.77
2022-12-04T04:00:06.935Z,19.57
2022-12-04T04:02:37.800Z,19.37
2022-12-04T04:05:07.124Z,19.67
2022-12-04T04:07:39.713Z,19.37
2022-12-04T04:10:15.213Z,12.73
2022-12-04T04:12:46.055Z,20.03
2022-12-04T04:15:35.331Z,14.20
2022-12-04T04:18:21.927Z,20.63
2022-12-04T04:21:13.455Z,18.17
2022-12-04T04:24:02.589Z,12.13
2022-12-04T04:26:34.251Z,19.50
2022-12-04T04:29:02.410Z,20.13
2022-12-04T04:31:35.100Z,20.23
2022-12-04T04:34:07.295Z,20.23
2022-12-04T04:36:45.714Z,15.97
2022-12-04T04:39:17.186Z,16.70
2022-12-04T04:41:48.852Z,20.00
2022-12-04T04:44:21.419Z,18.23
2022-12-04T04:46:54.698Z,18.00
2022-12-04T04:49:26.834Z,15.53
2022-12-04T04:51:56.046Z,21.30
2022-12-04T04:54:25.078Z,15.33
2022-12-04T04:56:53.360Z,16.00
2022-12-04T04:59:21.574Z,16.87
2022-12-04T05:01:51.244Z,17.60
2022-12-04T05:04:19.440Z,21.93
2022-12-04T05:06:48.964Z,20.20
2022-12-04T05:09:17.098Z,18.97
2022-12-04T05:11:45.542Z,17.53
2022-12-04T05:14:13.933Z,16.63
2022-12-04T05:16:42.473Z,14.57
2022-12-04T05:19:29.943Z,14.97
2022-12-04T05:21:58.514Z,17.17
2022-12-04T05:24:27.001Z,19.03
2022-12-04T05:26:55.103Z,14.27
2022-12-04T05:29:23.547Z,15.97
2022-12-04T05:31:52.079Z,19.80
2022-12-04T05:34:21.512Z,13.03
2022-12-04T05:36:49.743Z,20.73
2022-12-04T05:39:17.828Z,17.17
2022-12-04T05:41:46.300Z,18.77
2022-12-04T05:44:14.512Z,19.03
2022-12-04T05:46:43.112Z,15.47
2022-12-04T05:49:11.725Z,18.00
2022-12-04T05:51:41.286Z,14.87
2022-12-04T05:54:09.723Z,15.27
2022-12-04T05:56:38.236Z,19.07
2022-12-04T05:59:06.763Z,16.63
2022-12-04T06:01:35.301Z,13.33
2022-12-04T06:04:03.840Z,16.97
2022-12-04T06:06:32.347Z,15.93
2022-12-04T06:09:02.094Z,14.07
2022-12-04T06:11:32.016Z,18.87
2022-12-04T06:14:01.607Z,18.40
2022-12-04T06:16:32.483Z,18.93
2022-12-04T06:19:01.975Z,15.10
2022-12-04T06:21:31.534Z,20.80
2022-12-04T06:24:01.552Z,20.07
2022-12-04T06:26:29.883Z,18.80
2022-12-04T06:28:59.889Z,18.87
2022-12-04T06:31:30.498Z,19.47
2022-12-04T06:33:59.413Z,21.23
2022-12-04T06:36:28.268Z,20.67
2022-12-04T06:38:57.884Z,20.30
2022-12-04T06:41:29.826Z,17.20
2022-12-04T06:43:58.045Z,14.33
2022-12-04T06:46:27.912Z,21.47
2022-12-04T06:48:57.511Z,18.87
2022-12-04T06:51:27.099Z,15.90
2022-12-04T06:53:55.637Z,20.30
2022-12-04T06:56:25.673Z,19.50
2022-12-04T06:58:56.712Z,19.10
2022-12-04T07:01:26.698Z,20.33
2022-12-04T07:03:55.718Z,17.60
2022-12-04T07:06:26.454Z,19.47
2022-12-04T07:08:59.723Z,19.33
2022-12-04T07:11:27.877Z,17.60
2022-12-04T07:13:57.739Z,19.07
2022-12-04T07:16:27.216Z,21.03
2022-12-04T07:18:56.641Z,18.87
2022-12-04T07:21:26.998Z,17.13
2022-12-04T07:23:56.979Z,17.83
2022-12-04T07:26:26.446Z,21.53
2022-12-04T07:28:55.533Z,17.87
2022-12-04T07:31:26.697Z,17.93
2022-12-04T07:33:55.694Z,19.73
2022-12-04T07:36:25.286Z,20.77
2022-12-04T07:38:53.804Z,21.63
2022-12-04T07:41:22.141Z,21.00
2022-12-04T07:43:53.190Z,15.67
2022-12-04T07:46:23.126Z,15.63
2022-12-04T07:48:52.754Z,13.60
2022-12-04T07:51:23.378Z,19.87
2022-12-04T07:53:53.199Z,20.73
2022-12-04T07:56:21.903Z,8.37
2022-12-04T07:58:50.233Z,19.17
2022-12-04T08:01:20.638Z,17.10
2022-12-04T08:03:50.361Z,16.07
2022-12-04T08:06:21.760Z,18.13
2022-12-04T08:08:51.465Z,22.50
2022-12-04T08:11:22.227Z,19.80
2022-12-04T08:13:51.031Z,20.57
2022-12-04T08:16:19.176Z,19.33
2022-12-04T08:18:48.648Z,17.90
2022-12-04T08:21:19.260Z,20.10
2022-12-04T08:23:50.460Z,18.10
2022-12-04T08:26:19.329Z,20.53
2022-12-04T08:28:47.476Z,20.03
2022-12-04T08:31:18.158Z,21.50
2022-12-04T08:33:47.759Z,21.67
2022-12-04T08:36:17.692Z,22.67
2022-12-04T08:38:45.820Z,20.20
2022-12-04T08:41:16.971Z,20.40
2022-12-04T08:43:45.176Z,20.83
2022-12-04T08:46:15.567Z,19.00
2022-12-04T08:48:44.160Z,21.87
2022-12-04T08:51:14.807Z,22.37
2022-12-04T08:53:43.303Z,22.63
2022-12-04T08:56:11.807Z,21.13
2022-12-04T08:58:41.287Z,20.87
2022-12-04T09:01:11.233Z,21.90
2022-12-04T09:03:39.718Z,21.70
2022-12-04T09:06:09.472Z,21.63
2022-12-04T09:08:38.015Z,22.90
2022-12-04T09:11:07.654Z,17.87
2022-12-04T09:13:36.288Z,22.97
2022-12-04T09:16:07.955Z,20.87
2022-12-04T09:18:36.881Z,18.40
2022-12-04T09:21:07.286Z,22.70
2022-12-04T09:23:36.044Z,17.83
2022-12-04T09:26:04.841Z,22.03
2022-12-04T09:28:33.211Z,16.40
2022-12-04T09:31:03.009Z,21.77
2022-12-04T09:33:32.507Z,20.33
2022-12-04T09:36:01.294Z,18.13
2022-12-04T09:38:30.276Z,15.97
2022-12-04T09:41:16.373Z,21.13
2022-12-04T09:43:49.637Z,19.13
2022-12-04T09:46:22.947Z,15.17
2022-12-04T09:48:54.002Z,16.17
2022-12-04T09:51:24.987Z,19.00
2022-12-04T09:53:57.986Z,17.17
2022-12-04T09:56:30.345Z,19.90
2022-12-04T09:59:06.145Z,19.27
2022-12-04T10:01:41.375Z,20.37
2022-12-04T10:04:12.034Z,19.17
2022-12-04T10:06:46.856Z,15.00
2022-12-04T10:09:20.832Z,18.50
2022-12-04T10:11:57.237Z,16.73
2022-12-04T10:14:46.022Z,19.90
2022-12-04T10:17:32.378Z,18.70
2022-12-04T10:20:14.156Z,16.63
2022-12-04T10:22:54.531Z,15.87
2022-12-04T10:25:24.063Z,11.47
2022-12-04T10:27:55.002Z,17.57
2022-12-04T10:30:25.469Z,15.63
2022-12-04T10:32:59.169Z,15.60
2022-12-04T10:35:31.885Z,13.17
2022-12-04T10:38:04.346Z,16.70
2022-12-04T10:40:35.381Z,13.13
2022-12-04T10:43:12.328Z,13.60
2022-12-04T10:45:40.486Z,16.77
2022-12-04T10:48:10.741Z,13.30
2022-12-04T10:50:40.766Z,16.27
2022-12-04T10:53:13.613Z,15.83
2022-12-04T10:55:42.063Z,16.57
2022-12-04T10:58:17.580Z,15.17
2022-12-04T11:01:03.382Z,14.03
2022-12-04T11:03:32.196Z,11.77
2022-12-04T11:06:04.606Z,14.57
2022-12-04T11:08:37.611Z,13.93
2022-12-04T11:11:08.825Z,11.93
2022-12-04T11:13:36.975Z,14.97
2022-12-04T11:16:06.548Z,11.20
2022-12-04T11:18:36.688Z,11.33
2022-12-04T11:21:08.665Z,15.53
2022-12-04T11:23:43.400Z,14.47
2022-12-04T11:26:12.455Z,14.80
2022-12-04T11:28:45.350Z,14.87
2022-12-04T11:31:21.240Z,13.53
2022-12-04T11:33:53.735Z,13.67
2022-12-04T11:36:27.063Z,15.10
2022-12-04T11:39:08.417Z,15.13
2022-12-04T11:41:36.571Z,8.77
2022-12-04T11:44:08.214Z,14.60
2022-12-04T11:46:36.440Z,14.63
2022-12-04T11:49:04.558Z,14.77
2022-12-04T11:51:53.507Z,14.77
2022-12-04T11:54:31.014Z,13.43
2022-12-04T11:57:10.900Z,14.23
2022-12-04T11:59:56.083Z,12.53
2022-12-04T12:02:49.457Z,11.53
2022-12-04T12:05:34.200Z,12.87
2022-12-04T12:08:12.607Z,9.73
2022-12-04T12:10:48.369Z,11.97
2022-12-04T12:13:26.203Z,14.77
2022-12-04T12:16:02.997Z,16.00
2022-12-04T12:18:48.629Z,13.73
2022-12-04T12:21:21.843Z,11.70
2022-12-04T12:24:02.050Z,12.27
2022-12-04T12:26:42.064Z,17.77
2022-12-04T12:29:22.693Z,8.87
2022-12-04T12:32:11.707Z,12.87
2022-12-04T12:34:41.058Z,16.17
2022-12-04T12:37:24.821Z,15.20
2022-12-04T12:39:59.735Z,13.03
2022-12-04T12:42:32.077Z,13.53
2022-12-04T12:45:07.143Z,11.43
2022-12-04T12:47:41.789Z,12.57
2022-12-04T12:50:17.519Z,10.20
2022-12-04T12:52:53.485Z,10.73
2022-12-04T12:55:26.183Z,11.97
2022-12-04T12:58:02.841Z,14.23
2022-12-04T13:00:33.220Z,10.43
2022-12-04T13:03:05.945Z,13.00
2022-12-04T13:05:38.404Z,12.70
2022-12-04T13:08:16.866Z,11.93
2022-12-04T13:10:49.117Z,14.50
2022-12-04T13:13:24.316Z,11.47
2022-12-04T13:15:56.982Z,9.43
2022-12-04T13:18:28.481Z,11.87
2022-12-04T13:20:58.159Z,9.63
2022-12-04T13:23:42.009Z,10.33
2022-12-04T13:26:21.187Z,10.67
2022-12-04T13:28:56.054Z,9.07
2022-12-04T13:31:35.060Z,8.43
2022-12-04T13:34:16.920Z,9.83
2022-12-04T13:37:04.759Z,11.80
2022-12-04T13:39:58.936Z,11.37
2022-12-04T13:42:30.351Z,8.80
2022-12-04T13:45:00.252Z,9.53
2022-12-04T13:47:31.748Z,13.37
2022-12-04T13:50:27.969Z,13.63
2022-12-04T13:52:56.316Z,14.30
2022-12-04T13:55:27.196Z,14.37
2022-12-04T13:57:58.505Z,11.80
2022-12-04T14:00:31.564Z,14.87
2022-12-04T14:03:04.068Z,14.70
2022-12-04T14:05:40.761Z,17.03
2022-12-04T14:08:21.765Z,12.43
2022-12-04T14:11:01.819Z,17.10
2022-12-04T14:13:44.301Z,19.67
2022-12-04T14:16:21.583Z,20.07
2022-12-04T14:18:52.174Z,20.20
2022-12-04T14:21:20.540Z,13.97
2022-12-04T14:23:49.175Z,16.43
2022-12-04T14:26:37.295Z,13.90
2022-12-04T14:29:30.878Z,13.00
2022-12-04T14:32:06.876Z,19.43
2022-12-04T14:34:36.449Z,20.93
2022-12-04T14:37:05.735Z,17.53
2022-12-04T14:39:36.533Z,16.23
2022-12-04T14:42:08.432Z,15.73
2022-12-04T14:44:38.194Z,14.73
2022-12-04T14:47:14.934Z,21.27
2022-12-04T14:49:53.998Z,20.50
2022-12-04T14:52:25.958Z,14.63
2022-12-04T14:55:05.975Z,18.60
2022-12-04T14:57:42.139Z,13.77
2022-12-04T15:00:19.229Z,15.47
2022-12-04T15:02:49.275Z,16.40
2022-12-04T15:05:20.929Z,15.27
2022-12-04T15:07:50.424Z,13.63
2022-12-04T15:10:40.089Z,15.23
2022-12-04T15:13:08.203Z,15.70
2022-12-04T15:15:38.300Z,15.73
2022-12-04T15:18:14.886Z,16.90
2022-12-04T15:20:55.929Z,16.20
2022-12-04T15:26:20.983Z,16.43
2022-12-04T15:28:52.464Z,18.17
2022-12-04T15:31:24.931Z,17.07
2022-12-04T15:33:55.120Z,14.67
2022-12-04T15:36:30.430Z,15.30
2022-12-04T15:38:59.571Z,14.57
2022-12-04T15:41:32.412Z,13.67
2022-12-04T15:44:00.900Z,16.60
2022-12-04T15:46:35.237Z,15.53
2022-12-04T15:49:08.667Z,14.27
2022-12-04T15:51:37.136Z,11.40
2022-12-04T15:54:05.494Z,12.60
2022-12-04T15:56:33.632Z,16.97
2022-12-04T15:59:03.563Z,11.87
2022-12-04T16:01:41.383Z,16.03
2022-12-04T16:04:22.429Z,16.93
2022-12-04T16:06:53.753Z,13.30
2022-12-04T16:09:25.007Z,14.00
2022-12-04T16:11:59.737Z,12.83
2022-12-04T16:14:27.878Z,13.73
2022-12-04T16:17:05.950Z,10.13
2022-12-04T16:19:35.886Z,14.07
2022-12-04T16:22:06.038Z,16.93
2022-12-04T16:24:34.112Z,14.50
2022-12-04T16:27:03.462Z,15.87
2022-12-04T16:29:31.703Z,15.33
2022-12-04T16:32:03.592Z,12.50
2022-12-04T16:34:31.927Z,11.23
2022-12-04T16:37:00.791Z,15.77
2022-12-04T16:39:28.838Z,12.10
2022-12-04T16:41:57.223Z,10.07
2022-12-04T16:44:25.281Z,13.67
2022-12-04T16:46:53.774Z,15.10
2022-12-04T16:49:23.578Z,14.93
2022-12-04T16:51:51.853Z,14.53
2022-12-04T16:54:20.168Z,9.63
2022-12-04T16:56:48.377Z,11.73
2022-12-04T16:59:16.424Z,8.30
2022-12-04T17:01:46.939Z,8.73
2022-12-04T17:04:15.655Z,13.13
2022-12-04T17:06:45.780Z,12.60
2022-12-04T17:09:14.453Z,13.63
2022-12-04T17:11:42.969Z,13.93
2022-12-04T17:14:11.370Z,10.97
2022-12-04T17:16:42.569Z,14.63
2022-12-04T17:19:12.061Z,14.40
2022-12-04T17:21:41.666Z,12.57
2022-12-04T17:24:11.377Z,16.07
2022-12-04T17:26:39.617Z,14.57
2022-12-04T17:29:07.690Z,12.80
2022-12-04T17:31:35.848Z,13.20
2022-12-04T17:34:03.928Z,11.40
2022-12-04T17:36:32.469Z,13.07
2022-12-04T17:39:02.593Z,14.27
2022-12-04T17:41:32.065Z,17.70
2022-12-04T17:44:01.603Z,14.87
2022-12-04T17:46:29.849Z,15.97
2022-12-04T17:49:01.594Z,13.97
2022-12-04T17:51:34.968Z,16.30
2022-12-04T17:54:03.049Z,14.00
2022-12-04T17:56:33.844Z,12.40
2022-12-04T17:59:02.256Z,15.17
2022-12-04T18:01:31.048Z,17.10
2022-12-04T18:04:01.772Z,17.93
2022-12-04T18:06:31.579Z,17.70
2022-12-04T18:08:59.938Z,14.57
2022-12-04T18:11:29.818Z,18.27
2022-12-04T18:14:00.227Z,17.33
2022-12-04T18:16:29.885Z,16.03
2022-12-04T18:18:59.060Z,14.60
2022-12-04T18:21:27.757Z,16.57
2022-12-04T18:23:57.907Z,16.77
2022-12-04T18:26:26.978Z,12.20
2022-12-04T18:28:56.691Z,15.17
2022-12-04T18:31:26.154Z,14.00
2022-12-04T18:33:54.210Z,11.10
2022-12-04T18:36:24.162Z,18.40
2022-12-04T18:38:55.244Z,13.13
2022-12-04T18:41:24.249Z,16.47
2022-12-04T18:43:52.707Z,16.90
2022-12-04T18:46:21.667Z,19.13
2022-12-04T18:48:55.221Z,19.47
2022-12-04T18:51:24.606Z,19.57
2022-12-04T18:53:53.747Z,17.20
2022-12-04T18:56:22.577Z,17.33
2022-12-04T18:58:50.765Z,20.93
2022-12-04T19:01:20.368Z,13.17
2022-12-04T19:03:49.258Z,19.30
2022-12-04T19:06:19.034Z,18.93
2022-12-04T19:08:47.195Z,18.33
2022-12-04T19:11:16.884Z,19.17
2022-12-04T19:13:45.055Z,16.97
2022-12-04T19:16:13.761Z,16.93
2022-12-04T19:18:42.235Z,20.80
2022-12-04T19:21:10.471Z,19.30
2022-12-04T19:23:40.025Z,18.80
2022-12-04T19:26:08.147Z,22.37
2022-12-04T19:28:37.136Z,20.97
2022-12-04T19:31:05.679Z,22.90
2022-12-04T19:33:34.033Z,21.93
2022-12-04T19:36:03.899Z,20.27
2022-12-04T19:38:33.018Z,23.00
2022-12-04T19:41:09.321Z,20.17
2022-12-04T19:43:37.842Z,21.60
2022-12-04T19:46:06.411Z,18.77
2022-12-04T19:48:34.713Z,20.90
2022-12-04T19:51:07.619Z,22.20
2022-12-04T19:53:40.612Z,21.43
2022-12-04T19:56:12.770Z,19.87
2022-12-04T19:58:41.124Z,21.13
2022-12-04T20:01:12.489Z,21.83
2022-12-04T20:03:40.687Z,22.63
2022-12-04T20:06:10.562Z,20.87
2022-12-04T20:08:39.379Z,21.17
2022-12-04T20:11:09.438Z,21.77
2022-12-04T20:13:39.542Z,21.87
2022-12-04T20:16:09.317Z,21.00
2022-12-04T20:18:38.064Z,22.17
2022-12-04T20:21:11.005Z,22.50
2022-12-04T20:23:39.403Z,23.90
2022-12-04T20:26:08.761Z,22.60
2022-12-04T20:28:38.328Z,20.97
2022-12-04T20:31:13.726Z,24.70
2022-12-04T20:33:42.144Z,23.83
2022-12-04T20:36:11.290Z,25.37
2022-12-04T20:38:40.103Z,24.83
2022-12-04T20:41:13.224Z,24.07
2022-12-04T20:43:42.971Z,24.80
2022-12-04T20:46:15.638Z,23.63
2022-12-04T20:48:48.287Z,24.20
2022-12-04T20:51:17.353Z,24.40
2022-12-04T20:53:45.874Z,23.47
2022-12-04T20:56:14.848Z,26.43
2022-12-04T20:58:44.370Z,27.50
2022-12-04T21:01:14.305Z,23.47
2022-12-04T21:03:43.177Z,25.80
2022-12-04T21:06:13.826Z,25.80
2022-12-04T21:08:57.674Z,26.60
2022-12-04T21:11:28.407Z,26.47
2022-12-04T21:14:19.186Z,25.27
2022-12-04T21:16:48.338Z,26.73
2022-12-04T21:19:18.678Z,28.70
2022-12-04T21:21:47.203Z,27.43
2022-12-04T21:24:17.697Z,25.73
2022-12-04T21:26:47.092Z,27.13
2022-12-04T21:29:17.007Z,26.77
2022-12-04T21:31:45.625Z,26.00
2022-12-04T21:34:16.382Z,25.40
2022-12-04T21:36:46.224Z,26.17
2022-12-04T21:39:14.595Z,25.47
2022-12-04T21:42:00.862Z,25.00
2022-12-04T21:44:30.584Z,24.80
2022-12-04T21:46:58.998Z,24.23
2022-12-04T21:49:27.543Z,24.70
2022-12-04T21:51:57.825Z,23.73
2022-12-04T21:54:27.328Z,22.43
2022-12-04T21:56:55.778Z,22.73
2022-12-04T21:59:24.312Z,23.10
2022-12-04T22:01:54.608Z,19.73
2022-12-04T22:04:23.160Z,20.80
2022-12-04T22:06:51.672Z,20.97
2022-12-04T22:09:20.078Z,18.43
2022-12-04T22:11:48.462Z,22.20
2022-12-04T22:14:16.954Z,20.30
2022-12-04T22:16:45.462Z,17.33
2022-12-04T22:19:15.550Z,21.33
2022-12-04T22:21:43.974Z,20.90
2022-12-04T22:24:12.699Z,12.33
2022-12-04T22:26:41.067Z,21.23
2022-12-04T22:29:34.232Z,21.27
2022-12-04T22:31:57.648Z,21.90
2022-12-04T22:34:27.103Z,22.30
2022-12-04T22:36:55.526Z,23.20
2022-12-04T22:39:23.923Z,20.37
2022-12-04T22:41:51.982Z,21.20
2022-12-04T22:44:20.404Z,21.27
2022-12-04T22:46:48.865Z,22.67
2022-12-04T22:49:17.279Z,21.87
2022-12-04T22:51:47.051Z,21.20
2022-12-04T22:54:15.868Z,21.27
2022-12-04T22:56:44.584Z,22.50
2022-12-04T22:59:12.994Z,20.43
2022-12-04T23:01:41.429Z,20.27
2022-12-04T23:04:09.763Z,19.60
2022-12-04T23:06:38.145Z,20.67
2022-12-04T23:09:08.694Z,12.80
2022-12-04T23:11:37.160Z,14.57
2022-12-04T23:14:06.789Z,20.47
2022-12-04T23:16:37.303Z,20.50
2022-12-04T23:19:06.468Z,20.37
2022-12-04T23:21:34.942Z,20.33
2022-12-04T23:24:03.339Z,21.23
2022-12-04T23:26:33.920Z,21.80
2022-12-04T23:29:02.588Z,21.07
2022-12-04T23:31:31.375Z,20.83
2022-12-04T23:34:00.051Z,18.33
2022-12-04T23:36:28.706Z,21.63
2022-12-04T23:38:57.053Z,19.93
2022-12-04T23:41:26.191Z,20.57
2022-12-04T23:43:56.178Z,21.17
2022-12-04T23:46:25.754Z,22.53
2022-12-04T23:48:54.108Z,20.90
2022-12-04T23:51:22.861Z,21.23
2022-12-04T23:53:51.706Z,21.47
2022-12-04T23:56:20.890Z,23.23
2022-12-04T23:58:50.257Z,19.87
